sensor_id;sensor_type;location;lat;lon;timestamp;P1;durP1;ratioP1;P2;durP2;ratioP2
1414;SDS011;702;49.466;11.086;2022-09-20T00:01:30;3.17;;;2.83;;
1414;SDS011;702;49.466;11.086;2022-09-20T00:04:00;8.37;;;3.07;;
1414;SDS011;702;49.466;11.086;2022-09-20T00:06:31;3.97;;;3.53;;
1414;SDS011;702;49.466;11.086;2022-09-20T00:08:59;4.97;;;3.10;;
1414;SDS011;702;49.466;11.086;2022-09-20T00:11:28;4.33;;;3.27;;
1414;SDS011;702;49.466;11.086;2022-09-20T00:13:58;4.93;;;3.20;;
1414;SDS011;702;49.466;11.086;2022-09-20T00:16:33;4.93;;;3.10;;
1414;SDS011;702;49.466;11.086;2022-09-20T00:19:03;3.30;;;3.00;;
1414;SDS011;702;49.466;11.086;2022-09-20T00:21:32;2.30;;;2.10;;
1414;SDS011;702;49.466;11.086;2022-09-20T00:24:02;3.20;;;2.60;;
1414;SDS011;702;49.466;11.086;2022-09-20T00:26:30;5.30;;;2.83;;
1414;SDS011;702;49.466;11.086;2022-09-20T00:28:57;4.30;;;2.57;;
1414;SDS011;702;49.466;11.086;2022-09-20T00:31:27;5.33;;;2.73;;
1414;SDS011;702;49.466;11.086;2022-09-20T00:33:55;5.53;;;2.37;;
1414;SDS011;702;49.466;11.086;2022-09-20T00:36:40;4.73;;;2.60;;
1414;SDS011;702;49.466;11.086;2022-09-20T00:39:09;3.30;;;2.27;;
1414;SDS011;702;49.466;11.086;2022-09-20T00:41:39;4.93;;;2.77;;
1414;SDS011;702;49.466;11.086;2022-09-20T00:47:20;5.93;;;2.70;;
1414;SDS011;702;49.466;11.086;2022-09-20T00:49:55;3.70;;;2.80;;
1414;SDS011;702;49.466;11.086;2022-09-20T00:52:31;3.97;;;2.73;;
1414;SDS011;702;49.466;11.086;2022-09-20T00:55:00;5.93;;;3.40;;
1414;SDS011;702;49.466;11.086;2022-09-20T00:57:36;5.63;;;2.63;;
1414;SDS011;702;49.466;11.086;2022-09-20T01:00:04;5.90;;;2.40;;
1414;SDS011;702;49.466;11.086;2022-09-20T01:02:36;5.17;;;3.33;;
1414;SDS011;702;49.466;11.086;2022-09-20T01:05:08;3.33;;;2.83;;
1414;SDS011;702;49.466;11.086;2022-09-20T01:07:38;5.13;;;2.70;;
1414;SDS011;702;49.466;11.086;2022-09-20T01:10:06;4.10;;;2.63;;
1414;SDS011;702;49.466;11.086;2022-09-20T01:12:34;5.20;;;2.77;;
1414;SDS011;702;49.466;11.086;2022-09-20T01:15:05;4.80;;;2.77;;
1414;SDS011;702;49.466;11.086;2022-09-20T01:17:38;3.30;;;2.93;;
1414;SDS011;702;49.466;11.086;2022-09-20T01:20:16;6.03;;;3.10;;
1414;SDS011;702;49.466;11.086;2022-09-20T01:22:53;5.00;;;3.40;;
1414;SDS011;702;49.466;11.086;2022-09-20T01:25:49;3.10;;;2.57;;
1414;SDS011;702;49.466;11.086;2022-09-20T01:28:56;3.47;;;2.20;;
1414;SDS011;702;49.466;11.086;2022-09-20T01:31:38;5.30;;;2.57;;
1414;SDS011;702;49.466;11.086;2022-09-20T01:34:11;6.00;;;2.30;;
1414;SDS011;702;49.466;11.086;2022-09-20T01:36:42;9.93;;;3.00;;
1414;SDS011;702;49.466;11.086;2022-09-20T01:39:16;2.60;;;2.37;;
1414;SDS011;702;49.466;11.086;2022-09-20T01:41:59;4.43;;;2.57;;
1414;SDS011;702;49.466;11.086;2022-09-20T01:44:33;2.83;;;2.60;;
1414;SDS011;702;49.466;11.086;2022-09-20T01:47:09;3.10;;;2.67;;
1414;SDS011;702;49.466;11.086;2022-09-20T01:49:50;5.90;;;3.00;;
1414;SDS011;702;49.466;11.086;2022-09-20T01:52:53;5.07;;;2.73;;
1414;SDS011;702;49.466;11.086;2022-09-20T01:56:06;9.50;;;3.03;;
1414;SDS011;702;49.466;11.086;2022-09-20T01:59:14;5.87;;;3.20;;
1414;SDS011;702;49.466;11.086;2022-09-20T02:06:19;3.43;;;2.90;;
1414;SDS011;702;49.466;11.086;2022-09-20T02:09:09;4.53;;;3.07;;
1414;SDS011;702;49.466;11.086;2022-09-20T02:12:20;6.10;;;3.50;;
1414;SDS011;702;49.466;11.086;2022-09-20T02:15:02;3.60;;;3.27;;
1414;SDS011;702;49.466;11.086;2022-09-20T02:17:43;7.53;;;3.47;;
1414;SDS011;702;49.466;11.086;2022-09-20T02:20:30;5.97;;;3.20;;
1414;SDS011;702;49.466;11.086;2022-09-20T02:23:10;5.33;;;3.23;;
1414;SDS011;702;49.466;11.086;2022-09-20T02:28:51;3.40;;;2.70;;
1414;SDS011;702;49.466;11.086;2022-09-20T02:31:31;5.63;;;3.70;;
1414;SDS011;702;49.466;11.086;2022-09-20T02:34:22;4.20;;;3.27;;
1414;SDS011;702;49.466;11.086;2022-09-20T02:37:20;8.03;;;3.43;;
1414;SDS011;702;49.466;11.086;2022-09-20T02:40:23;3.83;;;3.53;;
1414;SDS011;702;49.466;11.086;2022-09-20T02:43:07;5.77;;;3.53;;
1414;SDS011;702;49.466;11.086;2022-09-20T02:45:43;6.30;;;3.67;;
1414;SDS011;702;49.466;11.086;2022-09-20T02:48:21;4.10;;;3.70;;
1414;SDS011;702;49.466;11.086;2022-09-20T02:51:04;5.20;;;3.90;;
1414;SDS011;702;49.466;11.086;2022-09-20T02:53:44;4.80;;;3.70;;
1414;SDS011;702;49.466;11.086;2022-09-20T03:03:45;6.80;;;3.77;;
1414;SDS011;702;49.466;11.086;2022-09-20T03:06:24;5.37;;;4.23;;
1414;SDS011;702;49.466;11.086;2022-09-20T03:09:02;5.63;;;3.70;;
1414;SDS011;702;49.466;11.086;2022-09-20T03:11:41;6.60;;;3.70;;
1414;SDS011;702;49.466;11.086;2022-09-20T03:14:17;7.83;;;4.20;;
1414;SDS011;702;49.466;11.086;2022-09-20T03:16:55;7.20;;;4.20;;
1414;SDS011;702;49.466;11.086;2022-09-20T03:19:37;8.53;;;4.27;;
1414;SDS011;702;49.466;11.086;2022-09-20T03:22:20;8.83;;;4.20;;
1414;SDS011;702;49.466;11.086;2022-09-20T03:25:06;5.43;;;4.20;;
1414;SDS011;702;49.466;11.086;2022-09-20T03:27:55;6.13;;;4.63;;
1414;SDS011;702;49.466;11.086;2022-09-20T03:30:40;10.13;;;4.67;;
1414;SDS011;702;49.466;11.086;2022-09-20T03:33:25;8.97;;;4.50;;
1414;SDS011;702;49.466;11.086;2022-09-20T03:36:10;5.50;;;4.57;;
1414;SDS011;702;49.466;11.086;2022-09-20T03:39:05;6.40;;;4.27;;
1414;SDS011;702;49.466;11.086;2022-09-20T03:42:01;7.33;;;4.73;;
1414;SDS011;702;49.466;11.086;2022-09-20T03:44:46;9.43;;;4.77;;
1414;SDS011;702;49.466;11.086;2022-09-20T03:48:04;4.73;;;4.23;;
1414;SDS011;702;49.466;11.086;2022-09-20T03:50:55;6.67;;;5.23;;
1414;SDS011;702;49.466;11.086;2022-09-20T03:53:51;6.37;;;5.13;;
1414;SDS011;702;49.466;11.086;2022-09-20T03:57:11;6.53;;;5.07;;
1414;SDS011;702;49.466;11.086;2022-09-20T04:00:06;6.60;;;4.40;;
1414;SDS011;702;49.466;11.086;2022-09-20T04:02:57;7.10;;;5.20;;
1414;SDS011;702;49.466;11.086;2022-09-20T04:05:48;6.40;;;4.97;;
1414;SDS011;702;49.466;11.086;2022-09-20T04:08:41;8.33;;;5.13;;
1414;SDS011;702;49.466;11.086;2022-09-20T04:11:36;6.40;;;4.80;;
1414;SDS011;702;49.466;11.086;2022-09-20T04:14:17;7.33;;;6.30;;
1414;SDS011;702;49.466;11.086;2022-09-20T04:16:57;8.27;;;5.63;;
1414;SDS011;702;49.466;11.086;2022-09-20T04:19:32;9.07;;;5.33;;
1414;SDS011;702;49.466;11.086;2022-09-20T04:22:06;13.47;;;6.03;;
1414;SDS011;702;49.466;11.086;2022-09-20T04:24:40;8.87;;;6.00;;
1414;SDS011;702;49.466;11.086;2022-09-20T04:27:15;6.00;;;5.20;;
1414;SDS011;702;49.466;11.086;2022-09-20T04:29:51;10.20;;;5.47;;
1414;SDS011;702;49.466;11.086;2022-09-20T04:32:24;9.23;;;5.03;;
1414;SDS011;702;49.466;11.086;2022-09-20T04:35:00;7.03;;;5.13;;
1414;SDS011;702;49.466;11.086;2022-09-20T04:38:02;9.10;;;4.20;;
1414;SDS011;702;49.466;11.086;2022-09-20T04:40:43;6.83;;;5.40;;
1414;SDS011;702;49.466;11.086;2022-09-20T04:43:49;10.87;;;4.93;;
1414;SDS011;702;49.466;11.086;2022-09-20T04:50:43;7.80;;;5.17;;
1414;SDS011;702;49.466;11.086;2022-09-20T04:53:52;9.03;;;5.00;;
1414;SDS011;702;49.466;11.086;2022-09-20T04:57:10;8.37;;;5.57;;
1414;SDS011;702;49.466;11.086;2022-09-20T05:00:07;6.93;;;4.43;;
1414;SDS011;702;49.466;11.086;2022-09-20T05:09:18;9.83;;;6.97;;
1414;SDS011;702;49.466;11.086;2022-09-20T05:12:18;7.90;;;5.60;;
1414;SDS011;702;49.466;11.086;2022-09-20T05:15:26;8.60;;;5.70;;
1414;SDS011;702;49.466;11.086;2022-09-20T05:21:15;10.33;;;6.40;;
1414;SDS011;702;49.466;11.086;2022-09-20T05:27:29;8.80;;;6.40;;
1414;SDS011;702;49.466;11.086;2022-09-20T05:30:11;12.23;;;6.30;;
1414;SDS011;702;49.466;11.086;2022-09-20T05:32:51;12.50;;;6.30;;
1414;SDS011;702;49.466;11.086;2022-09-20T05:35:37;8.93;;;5.50;;
1414;SDS011;702;49.466;11.086;2022-09-20T05:38:14;6.00;;;5.30;;
1414;SDS011;702;49.466;11.086;2022-09-20T05:40:53;12.00;;;6.83;;
1414;SDS011;702;49.466;11.086;2022-09-20T05:43:33;7.47;;;5.80;;
1414;SDS011;702;49.466;11.086;2022-09-20T05:46:14;7.87;;;5.33;;
1414;SDS011;702;49.466;11.086;2022-09-20T05:48:52;9.03;;;5.50;;
1414;SDS011;702;49.466;11.086;2022-09-20T05:51:29;7.47;;;5.37;;
1414;SDS011;702;49.466;11.086;2022-09-20T05:54:20;8.60;;;6.10;;
1414;SDS011;702;49.466;11.086;2022-09-20T05:57:05;8.13;;;5.97;;
1414;SDS011;702;49.466;11.086;2022-09-20T05:59:48;8.03;;;6.43;;
1414;SDS011;702;49.466;11.086;2022-09-20T06:02:33;10.37;;;6.30;;
1414;SDS011;702;49.466;11.086;2022-09-20T06:05:10;10.00;;;5.93;;
1414;SDS011;702;49.466;11.086;2022-09-20T06:07:55;9.13;;;6.10;;
1414;SDS011;702;49.466;11.086;2022-09-20T06:10:45;9.13;;;6.13;;
1414;SDS011;702;49.466;11.086;2022-09-20T06:13:34;9.80;;;6.10;;
1414;SDS011;702;49.466;11.086;2022-09-20T06:16:26;9.47;;;6.40;;
1414;SDS011;702;49.466;11.086;2022-09-20T06:19:05;8.30;;;6.50;;
1414;SDS011;702;49.466;11.086;2022-09-20T06:21:45;15.80;;;8.77;;
1414;SDS011;702;49.466;11.086;2022-09-20T06:24:23;10.50;;;6.43;;
1414;SDS011;702;49.466;11.086;2022-09-20T06:27:00;7.50;;;6.60;;
1414;SDS011;702;49.466;11.086;2022-09-20T06:29:33;15.50;;;6.90;;
1414;SDS011;702;49.466;11.086;2022-09-20T06:32:04;8.80;;;6.60;;
1414;SDS011;702;49.466;11.086;2022-09-20T06:34:32;10.50;;;7.10;;
1414;SDS011;702;49.466;11.086;2022-09-20T06:37:04;8.03;;;5.70;;
1414;SDS011;702;49.466;11.086;2022-09-20T06:40:08;6.53;;;5.57;;
1414;SDS011;702;49.466;11.086;2022-09-20T06:43:19;9.77;;;5.40;;
1414;SDS011;702;49.466;11.086;2022-09-20T06:45:46;7.30;;;5.70;;
1414;SDS011;702;49.466;11.086;2022-09-20T06:48:13;7.00;;;5.30;;
1414;SDS011;702;49.466;11.086;2022-09-20T06:50:40;8.40;;;6.00;;
1414;SDS011;702;49.466;11.086;2022-09-20T06:53:11;12.27;;;6.23;;
1414;SDS011;702;49.466;11.086;2022-09-20T06:55:44;11.93;;;6.53;;
1414;SDS011;702;49.466;11.086;2022-09-20T06:58:12;8.33;;;6.10;;
1414;SDS011;702;49.466;11.086;2022-09-20T07:00:39;12.40;;;5.10;;
1414;SDS011;702;49.466;11.086;2022-09-20T07:03:07;12.37;;;5.80;;
1414;SDS011;702;49.466;11.086;2022-09-20T07:05:36;6.47;;;5.87;;
1414;SDS011;702;49.466;11.086;2022-09-20T07:08:04;7.50;;;5.37;;
1414;SDS011;702;49.466;11.086;2022-09-20T07:10:32;6.33;;;5.43;;
1414;SDS011;702;49.466;11.086;2022-09-20T07:13:01;6.83;;;6.17;;
1414;SDS011;702;49.466;11.086;2022-09-20T07:15:31;9.63;;;6.57;;
1414;SDS011;702;49.466;11.086;2022-09-20T07:18:00;7.13;;;6.43;;
1414;SDS011;702;49.466;11.086;2022-09-20T07:20:27;7.63;;;6.03;;
1414;SDS011;702;49.466;11.086;2022-09-20T07:22:54;8.30;;;6.40;;
1414;SDS011;702;49.466;11.086;2022-09-20T07:25:22;9.40;;;6.53;;
1414;SDS011;702;49.466;11.086;2022-09-20T07:27:49;11.93;;;6.40;;
1414;SDS011;702;49.466;11.086;2022-09-20T07:30:18;9.37;;;7.97;;
1414;SDS011;702;49.466;11.086;2022-09-20T07:32:46;15.30;;;8.37;;
1414;SDS011;702;49.466;11.086;2022-09-20T07:35:14;8.47;;;7.60;;
1414;SDS011;702;49.466;11.086;2022-09-20T07:37:41;11.80;;;8.13;;
1414;SDS011;702;49.466;11.086;2022-09-20T07:40:09;10.30;;;8.10;;
1414;SDS011;702;49.466;11.086;2022-09-20T07:42:39;18.93;;;8.20;;
1414;SDS011;702;49.466;11.086;2022-09-20T07:45:06;13.07;;;7.97;;
1414;SDS011;702;49.466;11.086;2022-09-20T07:47:36;7.60;;;6.90;;
1414;SDS011;702;49.466;11.086;2022-09-20T07:50:07;12.80;;;8.60;;
1414;SDS011;702;49.466;11.086;2022-09-20T07:52:35;9.57;;;7.30;;
1414;SDS011;702;49.466;11.086;2022-09-20T07:55:02;10.03;;;5.87;;
1414;SDS011;702;49.466;11.086;2022-09-20T07:57:33;8.70;;;5.80;;
1414;SDS011;702;49.466;11.086;2022-09-20T08:00:03;9.37;;;5.23;;
1414;SDS011;702;49.466;11.086;2022-09-20T08:02:33;12.27;;;6.87;;
1414;SDS011;702;49.466;11.086;2022-09-20T08:05:02;6.10;;;5.03;;
1414;SDS011;702;49.466;11.086;2022-09-20T08:07:30;5.83;;;5.33;;
1414;SDS011;702;49.466;11.086;2022-09-20T08:09:58;8.23;;;5.97;;
1414;SDS011;702;49.466;11.086;2022-09-20T08:12:25;11.03;;;5.43;;
1414;SDS011;702;49.466;11.086;2022-09-20T08:14:54;6.80;;;4.90;;
1414;SDS011;702;49.466;11.086;2022-09-20T08:17:21;7.40;;;5.33;;
1414;SDS011;702;49.466;11.086;2022-09-20T08:19:48;9.07;;;5.30;;
1414;SDS011;702;49.466;11.086;2022-09-20T08:22:18;8.70;;;5.37;;
1414;SDS011;702;49.466;11.086;2022-09-20T08:24:46;6.27;;;4.00;;
1414;SDS011;702;49.466;11.086;2022-09-20T08:27:13;9.03;;;3.80;;
1414;SDS011;702;49.466;11.086;2022-09-20T08:29:40;7.47;;;4.40;;
1414;SDS011;702;49.466;11.086;2022-09-20T08:32:08;5.60;;;3.80;;
1414;SDS011;702;49.466;11.086;2022-09-20T08:34:35;11.97;;;4.67;;
1414;SDS011;702;49.466;11.086;2022-09-20T08:37:04;7.60;;;3.40;;
1414;SDS011;702;49.466;11.086;2022-09-20T08:39:33;8.00;;;4.30;;
1414;SDS011;702;49.466;11.086;2022-09-20T08:42:03;4.60;;;3.60;;
1414;SDS011;702;49.466;11.086;2022-09-20T08:44:42;6.90;;;3.47;;
1414;SDS011;702;49.466;11.086;2022-09-20T08:47:18;6.27;;;4.00;;
1414;SDS011;702;49.466;11.086;2022-09-20T08:49:47;7.73;;;3.53;;
1414;SDS011;702;49.466;11.086;2022-09-20T08:52:18;6.80;;;4.30;;
1414;SDS011;702;49.466;11.086;2022-09-20T08:54:54;8.50;;;3.50;;
1414;SDS011;702;49.466;11.086;2022-09-20T08:57:22;7.13;;;4.00;;
1414;SDS011;702;49.466;11.086;2022-09-20T08:59:53;6.33;;;3.17;;
1414;SDS011;702;49.466;11.086;2022-09-20T09:02:21;10.97;;;3.23;;
1414;SDS011;702;49.466;11.086;2022-09-20T09:04:49;7.97;;;3.13;;
1414;SDS011;702;49.466;11.086;2022-09-20T09:07:18;5.73;;;2.70;;
1414;SDS011;702;49.466;11.086;2022-09-20T09:09:47;9.20;;;3.10;;
1414;SDS011;702;49.466;11.086;2022-09-20T09:12:20;5.47;;;2.60;;
1414;SDS011;702;49.466;11.086;2022-09-20T09:14:50;6.73;;;3.13;;
1414;SDS011;702;49.466;11.086;2022-09-20T09:17:21;8.90;;;3.43;;
1414;SDS011;702;49.466;11.086;2022-09-20T09:19:50;6.30;;;2.60;;
1414;SDS011;702;49.466;11.086;2022-09-20T09:22:21;8.10;;;3.40;;
1414;SDS011;702;49.466;11.086;2022-09-20T09:27:50;5.60;;;2.27;;
1414;SDS011;702;49.466;11.086;2022-09-20T09:30:21;5.90;;;2.93;;
1414;SDS011;702;49.466;11.086;2022-09-20T09:32:52;5.13;;;2.80;;
1414;SDS011;702;49.466;11.086;2022-09-20T09:35:52;7.20;;;2.57;;
1414;SDS011;702;49.466;11.086;2022-09-20T09:38:23;5.20;;;3.07;;
1414;SDS011;702;49.466;11.086;2022-09-20T09:40:54;5.20;;;2.73;;
1414;SDS011;702;49.466;11.086;2022-09-20T09:43:25;3.20;;;2.20;;
1414;SDS011;702;49.466;11.086;2022-09-20T09:45:55;5.60;;;2.45;;
1414;SDS011;702;49.466;11.086;2022-09-20T09:48:43;3.60;;;2.00;;
1414;SDS011;702;49.466;11.086;2022-09-20T09:51:16;4.23;;;2.30;;
1414;SDS011;702;49.466;11.086;2022-09-20T09:53:47;5.13;;;2.87;;
1414;SDS011;702;49.466;11.086;2022-09-20T09:56:30;5.63;;;2.90;;
1414;SDS011;702;49.466;11.086;2022-09-20T09:59:21;3.97;;;2.10;;
1414;SDS011;702;49.466;11.086;2022-09-20T10:02:10;2.90;;;2.03;;
1414;SDS011;702;49.466;11.086;2022-09-20T10:04:54;4.47;;;2.30;;
1414;SDS011;702;49.466;11.086;2022-09-20T10:07:29;3.73;;;2.20;;
1414;SDS011;702;49.466;11.086;2022-09-20T10:10:07;4.43;;;2.43;;
1414;SDS011;702;49.466;11.086;2022-09-20T10:12:49;3.67;;;1.20;;
1414;SDS011;702;49.466;11.086;2022-09-20T10:15:31;2.23;;;1.07;;
1414;SDS011;702;49.466;11.086;2022-09-20T10:18:11;2.63;;;1.00;;
1414;SDS011;702;49.466;11.086;2022-09-20T10:21:03;5.17;;;1.63;;
1414;SDS011;702;49.466;11.086;2022-09-20T10:23:44;2.20;;;1.33;;
1414;SDS011;702;49.466;11.086;2022-09-20T10:29:25;3.83;;;1.93;;
1414;SDS011;702;49.466;11.086;2022-09-20T10:32:08;7.70;;;1.83;;
1414;SDS011;702;49.466;11.086;2022-09-20T10:34:55;2.60;;;1.47;;
1414;SDS011;702;49.466;11.086;2022-09-20T10:37:40;2.93;;;0.97;;
1414;SDS011;702;49.466;11.086;2022-09-20T10:40:23;3.57;;;2.20;;
1414;SDS011;702;49.466;11.086;2022-09-20T10:43:21;2.50;;;1.50;;
1414;SDS011;702;49.466;11.086;2022-09-20T10:46:09;3.77;;;1.60;;
1414;SDS011;702;49.466;11.086;2022-09-20T10:48:47;3.13;;;1.60;;
1414;SDS011;702;49.466;11.086;2022-09-20T10:51:36;4.43;;;2.17;;
1414;SDS011;702;49.466;11.086;2022-09-20T10:54:14;4.30;;;1.90;;
1414;SDS011;702;49.466;11.086;2022-09-20T10:56:57;3.83;;;1.57;;
1414;SDS011;702;49.466;11.086;2022-09-20T10:59:45;1.60;;;1.40;;
1414;SDS011;702;49.466;11.086;2022-09-20T11:02:43;2.70;;;1.70;;
1414;SDS011;702;49.466;11.086;2022-09-20T11:05:27;4.90;;;2.23;;
1414;SDS011;702;49.466;11.086;2022-09-20T11:08:03;3.73;;;2.30;;
1414;SDS011;702;49.466;11.086;2022-09-20T11:10:37;5.73;;;2.03;;
1414;SDS011;702;49.466;11.086;2022-09-20T11:13:14;3.93;;;2.30;;
1414;SDS011;702;49.466;11.086;2022-09-20T11:15:51;5.00;;;2.63;;
1414;SDS011;702;49.466;11.086;2022-09-20T11:18:27;2.93;;;2.00;;
1414;SDS011;702;49.466;11.086;2022-09-20T11:21:04;4.57;;;2.27;;
1414;SDS011;702;49.466;11.086;2022-09-20T11:23:39;6.20;;;2.20;;
1414;SDS011;702;49.466;11.086;2022-09-20T11:26:17;4.40;;;2.40;;
1414;SDS011;702;49.466;11.086;2022-09-20T11:28:52;3.10;;;2.03;;
1414;SDS011;702;49.466;11.086;2022-09-20T11:31:25;5.73;;;2.37;;
1414;SDS011;702;49.466;11.086;2022-09-20T11:33:57;2.57;;;1.90;;
1414;SDS011;702;49.466;11.086;2022-09-20T11:36:33;3.27;;;2.03;;
1414;SDS011;702;49.466;11.086;2022-09-20T11:39:10;2.80;;;1.70;;
1414;SDS011;702;49.466;11.086;2022-09-20T11:41:41;8.27;;;2.50;;
1414;SDS011;702;49.466;11.086;2022-09-20T11:44:10;3.60;;;1.90;;
1414;SDS011;702;49.466;11.086;2022-09-20T11:46:42;3.63;;;1.80;;
1414;SDS011;702;49.466;11.086;2022-09-20T11:49:17;3.50;;;2.30;;
1414;SDS011;702;49.466;11.086;2022-09-20T11:52:02;3.10;;;2.20;;
1414;SDS011;702;49.466;11.086;2022-09-20T11:55:04;4.50;;;2.23;;
1414;SDS011;702;49.466;11.086;2022-09-20T11:58:01;3.53;;;1.90;;
1414;SDS011;702;49.466;11.086;2022-09-20T12:00:33;5.50;;;2.30;;
1414;SDS011;702;49.466;11.086;2022-09-20T12:03:04;4.30;;;1.63;;
1414;SDS011;702;49.466;11.086;2022-09-20T12:05:53;2.93;;;2.17;;
1414;SDS011;702;49.466;11.086;2022-09-20T12:08:26;5.90;;;1.60;;
1414;SDS011;702;49.466;11.086;2022-09-20T12:10:58;3.70;;;1.50;;
1414;SDS011;702;49.466;11.086;2022-09-20T12:13:29;1.33;;;1.23;;
1414;SDS011;702;49.466;11.086;2022-09-20T12:16:01;4.77;;;2.10;;
1414;SDS011;702;49.466;11.086;2022-09-20T12:18:35;4.20;;;2.00;;
1414;SDS011;702;49.466;11.086;2022-09-20T12:21:26;5.90;;;1.70;;
1414;SDS011;702;49.466;11.086;2022-09-20T12:26:47;2.90;;;1.40;;
1414;SDS011;702;49.466;11.086;2022-09-20T12:32:45;4.17;;;1.87;;
1414;SDS011;702;49.466;11.086;2022-09-20T12:38:23;3.53;;;1.80;;
1414;SDS011;702;49.466;11.086;2022-09-20T12:41:01;3.80;;;2.30;;
1414;SDS011;702;49.466;11.086;2022-09-20T12:43:33;2.47;;;1.90;;
1414;SDS011;702;49.466;11.086;2022-09-20T12:46:05;3.53;;;2.10;;
1414;SDS011;702;49.466;11.086;2022-09-20T12:48:34;4.67;;;2.10;;
1414;SDS011;702;49.466;11.086;2022-09-20T12:51:03;2.93;;;1.50;;
1414;SDS011;702;49.466;11.086;2022-09-20T12:54:03;1.63;;;1.53;;
1414;SDS011;702;49.466;11.086;2022-09-20T12:56:34;2.23;;;1.40;;
1414;SDS011;702;49.466;11.086;2022-09-20T12:59:04;1.80;;;1.47;;
1414;SDS011;702;49.466;11.086;2022-09-20T13:01:46;2.70;;;1.20;;
1414;SDS011;702;49.466;11.086;2022-09-20T13:07:25;2.03;;;1.33;;
1414;SDS011;702;49.466;11.086;2022-09-20T13:10:01;2.90;;;1.63;;
1414;SDS011;702;49.466;11.086;2022-09-20T13:12:43;3.73;;;1.50;;
1414;SDS011;702;49.466;11.086;2022-09-20T13:15:12;4.20;;;2.13;;
1414;SDS011;702;49.466;11.086;2022-09-20T13:17:46;5.20;;;1.43;;
1414;SDS011;702;49.466;11.086;2022-09-20T13:20:18;2.80;;;1.43;;
1414;SDS011;702;49.466;11.086;2022-09-20T13:22:48;3.60;;;1.50;;
1414;SDS011;702;49.466;11.086;2022-09-20T13:25:19;2.60;;;1.40;;
1414;SDS011;702;49.466;11.086;2022-09-20T13:27:50;3.20;;;1.30;;
1414;SDS011;702;49.466;11.086;2022-09-20T13:30:26;3.00;;;1.03;;
1414;SDS011;702;49.466;11.086;2022-09-20T13:33:12;2.87;;;1.20;;
1414;SDS011;702;49.466;11.086;2022-09-20T13:35:43;2.13;;;1.07;;
1414;SDS011;702;49.466;11.086;2022-09-20T13:38:14;1.33;;;0.60;;
1414;SDS011;702;49.466;11.086;2022-09-20T13:40:49;3.30;;;1.30;;
1414;SDS011;702;49.466;11.086;2022-09-20T13:43:23;2.17;;;0.73;;
1414;SDS011;702;49.466;11.086;2022-09-20T13:45:54;4.23;;;1.80;;
1414;SDS011;702;49.466;11.086;2022-09-20T13:48:24;3.13;;;1.40;;
1414;SDS011;702;49.466;11.086;2022-09-20T13:50:52;3.53;;;1.43;;
1414;SDS011;702;49.466;11.086;2022-09-20T13:53:21;4.07;;;1.60;;
1414;SDS011;702;49.466;11.086;2022-09-20T13:55:50;4.10;;;1.60;;
1414;SDS011;702;49.466;11.086;2022-09-20T13:58:19;2.90;;;1.40;;
1414;SDS011;702;49.466;11.086;2022-09-20T14:00:53;2.20;;;1.23;;
1414;SDS011;702;49.466;11.086;2022-09-20T14:03:23;5.17;;;1.87;;
1414;SDS011;702;49.466;11.086;2022-09-20T14:05:54;2.40;;;1.53;;
1414;SDS011;702;49.466;11.086;2022-09-20T14:08:26;3.93;;;1.70;;
1414;SDS011;702;49.466;11.086;2022-09-20T14:11:04;2.50;;;1.40;;
1414;SDS011;702;49.466;11.086;2022-09-20T14:13:36;3.23;;;1.50;;
1414;SDS011;702;49.466;11.086;2022-09-20T14:16:08;1.80;;;1.40;;
1414;SDS011;702;49.466;11.086;2022-09-20T14:18:39;1.60;;;1.00;;
1414;SDS011;702;49.466;11.086;2022-09-20T14:21:07;2.20;;;1.37;;
1414;SDS011;702;49.466;11.086;2022-09-20T14:23:47;3.63;;;1.30;;
1414;SDS011;702;49.466;11.086;2022-09-20T14:26:21;2.57;;;1.37;;
1414;SDS011;702;49.466;11.086;2022-09-20T14:28:53;3.20;;;1.70;;
1414;SDS011;702;49.466;11.086;2022-09-20T14:31:22;2.47;;;1.40;;
1414;SDS011;702;49.466;11.086;2022-09-20T14:33:54;2.50;;;1.20;;
1414;SDS011;702;49.466;11.086;2022-09-20T14:36:25;3.03;;;1.13;;
1414;SDS011;702;49.466;11.086;2022-09-20T14:38:54;2.07;;;1.40;;
1414;SDS011;702;49.466;11.086;2022-09-20T14:41:31;2.60;;;1.80;;
1414;SDS011;702;49.466;11.086;2022-09-20T14:44:02;3.50;;;1.47;;
1414;SDS011;702;49.466;11.086;2022-09-20T14:46:32;1.53;;;0.83;;
1414;SDS011;702;49.466;11.086;2022-09-20T14:49:19;2.90;;;1.10;;
1414;SDS011;702;49.466;11.086;2022-09-20T14:55:16;1.57;;;0.93;;
1414;SDS011;702;49.466;11.086;2022-09-20T14:57:55;2.03;;;1.20;;
1414;SDS011;702;49.466;11.086;2022-09-20T15:00:26;4.70;;;1.10;;
1414;SDS011;702;49.466;11.086;2022-09-20T15:02:54;2.30;;;1.20;;
1414;SDS011;702;49.466;11.086;2022-09-20T15:05:30;2.70;;;1.30;;
1414;SDS011;702;49.466;11.086;2022-09-20T15:07:58;2.60;;;1.30;;
1414;SDS011;702;49.466;11.086;2022-09-20T15:10:25;5.40;;;1.27;;
1414;SDS011;702;49.466;11.086;2022-09-20T15:12:53;1.80;;;0.87;;
1414;SDS011;702;49.466;11.086;2022-09-20T15:15:21;3.53;;;1.30;;
1414;SDS011;702;49.466;11.086;2022-09-20T15:17:49;1.90;;;1.23;;
1414;SDS011;702;49.466;11.086;2022-09-20T15:20:17;1.37;;;0.90;;
1414;SDS011;702;49.466;11.086;2022-09-20T15:22:47;1.00;;;0.80;;
1414;SDS011;702;49.466;11.086;2022-09-20T15:25:15;1.00;;;0.60;;
1414;SDS011;702;49.466;11.086;2022-09-20T15:27:45;2.47;;;0.80;;
1414;SDS011;702;49.466;11.086;2022-09-20T15:30:14;2.07;;;1.10;;
1414;SDS011;702;49.466;11.086;2022-09-20T15:32:43;1.10;;;0.90;;
1414;SDS011;702;49.466;11.086;2022-09-20T15:35:13;1.80;;;0.67;;
1414;SDS011;702;49.466;11.086;2022-09-20T15:37:41;3.00;;;0.97;;
1414;SDS011;702;49.466;11.086;2022-09-20T15:40:10;2.00;;;0.83;;
1414;SDS011;702;49.466;11.086;2022-09-20T15:42:37;3.57;;;1.03;;
1414;SDS011;702;49.466;11.086;2022-09-20T15:45:06;1.40;;;1.07;;
1414;SDS011;702;49.466;11.086;2022-09-20T15:47:36;1.20;;;0.70;;
1414;SDS011;702;49.466;11.086;2022-09-20T15:50:04;2.80;;;1.07;;
1414;SDS011;702;49.466;11.086;2022-09-20T15:52:35;2.03;;;1.00;;
1414;SDS011;702;49.466;11.086;2022-09-20T15:55:05;3.33;;;1.07;;
1414;SDS011;702;49.466;11.086;2022-09-20T15:57:34;2.83;;;1.33;;
1414;SDS011;702;49.466;11.086;2022-09-20T16:00:02;1.90;;;1.27;;
1414;SDS011;702;49.466;11.086;2022-09-20T16:02:30;2.20;;;1.27;;
1414;SDS011;702;49.466;11.086;2022-09-20T16:04:57;1.57;;;1.20;;
1414;SDS011;702;49.466;11.086;2022-09-20T16:07:24;3.23;;;1.40;;
1414;SDS011;702;49.466;11.086;2022-09-20T16:09:53;2.30;;;1.20;;
1414;SDS011;702;49.466;11.086;2022-09-20T16:12:22;3.00;;;1.30;;
1414;SDS011;702;49.466;11.086;2022-09-20T16:14:50;2.50;;;1.37;;
1414;SDS011;702;49.466;11.086;2022-09-20T16:17:18;2.30;;;1.20;;
1414;SDS011;702;49.466;11.086;2022-09-20T16:20:06;0.90;;;0.90;;
1414;SDS011;702;49.466;11.086;2022-09-20T16:22:33;4.43;;;1.10;;
1414;SDS011;702;49.466;11.086;2022-09-20T16:25:01;2.63;;;1.03;;
1414;SDS011;702;49.466;11.086;2022-09-20T16:27:30;1.20;;;0.80;;
1414;SDS011;702;49.466;11.086;2022-09-20T16:29:59;2.17;;;1.10;;
1414;SDS011;702;49.466;11.086;2022-09-20T16:32:26;2.07;;;0.97;;
1414;SDS011;702;49.466;11.086;2022-09-20T16:34:53;1.67;;;1.03;;
1414;SDS011;702;49.466;11.086;2022-09-20T16:37:23;6.23;;;1.90;;
1414;SDS011;702;49.466;11.086;2022-09-20T16:39:56;2.73;;;1.10;;
1414;SDS011;702;49.466;11.086;2022-09-20T16:42:25;2.97;;;1.40;;
1414;SDS011;702;49.466;11.086;2022-09-20T16:44:53;1.70;;;0.90;;
1414;SDS011;702;49.466;11.086;2022-09-20T16:47:21;0.67;;;0.60;;
1414;SDS011;702;49.466;11.086;2022-09-20T16:49:49;3.77;;;0.73;;
1414;SDS011;702;49.466;11.086;2022-09-20T16:52:18;1.27;;;0.53;;
1414;SDS011;702;49.466;11.086;2022-09-20T16:54:45;1.07;;;0.70;;
1414;SDS011;702;49.466;11.086;2022-09-20T16:57:12;1.67;;;0.60;;
1414;SDS011;702;49.466;11.086;2022-09-20T16:59:42;1.30;;;0.80;;
1414;SDS011;702;49.466;11.086;2022-09-20T17:02:10;0.87;;;0.87;;
1414;SDS011;702;49.466;11.086;2022-09-20T17:04:38;1.67;;;0.80;;
1414;SDS011;702;49.466;11.086;2022-09-20T17:07:05;4.67;;;1.07;;
1414;SDS011;702;49.466;11.086;2022-09-20T17:09:32;1.60;;;1.30;;